Time;durP1;ratioP1;P1;durP2;ratioP2;P2;SDS_P1;SDS_P2;PMS_P1;PMS_P2;Temp;Humidity;BMP_temperature;BMP_pressure;BME280_temperature;BME280_humidity;BME280_pressure;Samples;Min_cycle;Max_cycle;Signal;HPM_P1;HPM_P2
2022/09/22 00:01:08;;;;;;;7.45;2.17;;;7.80;99.90;;;;;;5032725;28;20410;-82
2022/09/22 00:03:37;;;;;;;5.80;2.30;;;7.80;99.90;;;;;;5065092;28;20096;-82
2022/09/22 00:06:05;;;;;;;5.50;2.40;;;7.80;99.90;;;;;;5049086;28;20505;-82
2022/09/22 00:08:35;;;;;;;6.38;2.35;;;7.90;99.90;;;;;;5065730;28;20129;-82
2022/09/22 00:11:17;;;;;;;8.80;2.78;;;7.70;99.90;;;;;;5049086;28;20431;-82
2022/09/22 00:13:57;;;;;;;7.15;2.80;;;7.80;99.90;;;;;;5048551;28;20489;-82
2022/09/22 00:16:28;;;;;;;5.32;2.63;;;7.80;99.90;;;;;;5049023;28;20077;-82
2022/09/22 00:18:55;;;;;;;5.93;2.45;;;7.80;99.90;;;;;;5065323;28;20041;-82
2022/09/22 00:21:26;;;;;;;4.82;2.65;;;8.00;99.90;;;;;;5052381;28;20440;-82
2022/09/22 00:23:53;;;;;;;5.78;2.70;;;7.70;99.90;;;;;;5068875;28;20045;-82
2022/09/22 00:26:22;;;;;;;6.63;3.15;;;7.70;99.90;;;;;;5052672;28;20037;-82
2022/09/22 00:28:51;;;;;;;9.15;3.33;;;7.70;99.90;;;;;;5052111;28;20512;-82
2022/09/22 00:31:21;;;;;;;5.07;2.80;;;7.70;99.90;;;;;;5052345;28;20049;-82
2022/09/22 00:33:49;;;;;;;10.50;3.30;;;7.70;99.90;;;;;;5068681;28;20044;-82
2022/09/22 00:36:18;;;;;;;9.45;3.70;;;7.60;99.90;;;;;;5044058;28;20562;-82
2022/09/22 00:38:45;;;;;;;11.30;3.53;;;7.60;99.90;;;;;;5025128;28;20402;-82
2022/09/22 00:41:19;;;;;;;10.95;3.58;;;7.60;99.90;;;;;;5016214;28;20494;-82
2022/09/22 00:43:49;;;;;;;7.55;3.65;;;7.60;99.90;;;;;;5032171;28;20410;-82
2022/09/22 00:46:25;;;;;;;6.88;3.72;;;7.60;99.90;;;;;;5032426;28;20049;-82
2022/09/22 00:48:56;;;;;;;7.20;3.42;;;7.60;99.90;;;;;;5032138;28;20056;-82
2022/09/22 00:51:27;;;;;;;6.85;3.30;;;7.50;99.90;;;;;;5057984;28;20042;-82
2022/09/22 00:53:55;;;;;;;6.25;3.30;;;7.50;99.90;;;;;;5051951;28;20029;-82
2022/09/22 00:56:38;;;;;;;6.22;3.08;;;7.60;99.90;;;;;;5035636;28;20120;-82
2022/09/22 00:59:11;;;;;;;9.27;3.50;;;7.50;99.90;;;;;;5072416;28;20057;-82
2022/09/22 01:01:39;;;;;;;5.85;2.65;;;7.50;99.90;;;;;;5032216;28;20040;-82
2022/09/22 01:04:07;;;;;;;6.10;3.42;;;7.40;99.90;;;;;;5044228;28;20107;-82
2022/09/22 01:06:37;;;;;;;8.27;3.35;;;7.40;99.90;;;;;;5062493;28;20038;-82
2022/09/22 01:09:04;;;;;;;6.78;2.88;;;7.40;99.90;;;;;;5047667;28;20038;-82
2022/09/22 01:11:31;;;;;;;7.60;2.92;;;7.40;99.90;;;;;;5031864;28;20490;-82
2022/09/22 01:14:29;;;;;;;10.32;3.83;;;7.40;99.90;;;;;;5015718;28;20054;-82
2022/09/22 01:17:12;;;;;;;8.90;3.03;;;7.40;99.90;;;;;;5047824;28;20042;-82
2022/09/22 01:19:51;;;;;;;5.78;2.65;;;7.40;99.90;;;;;;5031837;28;20176;-82
2022/09/22 01:22:31;;;;;;;10.00;3.03;;;7.40;99.90;;;;;;5048351;28;20452;-82
2022/09/22 01:25:20;;;;;;;7.22;3.20;;;7.40;99.90;;;;;;5064092;28;20410;-82
2022/09/22 01:27:55;;;;;;;6.25;2.97;;;7.30;99.90;;;;;;5055794;28;20115;-82
2022/09/22 01:30:32;;;;;;;8.23;2.85;;;7.30;99.90;;;;;;5068013;28;20103;-82
2022/09/22 01:33:29;;;;;;;8.18;3.13;;;7.30;99.90;;;;;;5066633;28;20049;-82
2022/09/22 01:36:33;;;;;;;6.63;3.17;;;7.20;99.90;;;;;;5067404;28;20041;-82
2022/09/22 01:39:10;;;;;;;6.80;3.00;;;7.30;99.90;;;;;;5067057;28;20041;-82
2022/09/22 01:41:36;;;;;;;5.78;2.60;;;7.20;99.90;;;;;;5067893;28;20132;-82
2022/09/22 01:44:10;;;;;;;5.35;2.50;;;7.20;99.90;;;;;;5067136;28;20176;-82
2022/09/22 01:46:45;;;;;;;5.10;2.53;;;7.20;99.90;;;;;;5067494;28;20128;-82
2022/09/22 01:49:14;;;;;;;6.13;2.83;;;7.20;99.90;;;;;;5067120;28;20924;-82
2022/09/22 01:51:49;;;;;;;5.95;2.63;;;7.10;99.90;;;;;;5050834;28;20037;-82
2022/09/22 01:54:23;;;;;;;6.85;2.40;;;7.10;99.90;;;;;;5050896;28;20395;-82
2022/09/22 01:56:57;;;;;;;7.38;2.50;;;7.10;99.90;;;;;;5050629;28;20045;-83
2022/09/22 01:59:29;;;;;;;12.10;3.45;;;7.10;99.90;;;;;;5083916;28;20490;-82
2022/09/22 02:02:10;;;;;;;4.68;2.45;;;7.10;99.90;;;;;;5050767;28;20077;-82
2022/09/22 02:04:51;;;;;;;6.43;2.50;;;7.10;99.90;;;;;;5067533;28;20043;-82
2022/09/22 02:07:24;;;;;;;5.68;2.58;;;7.00;99.90;;;;;;5084135;28;20045;-82
2022/09/22 02:09:51;;;;;;;3.83;2.40;;;7.10;99.90;;;;;;5050406;28;20124;-82
2022/09/22 02:12:18;;;;;;;5.53;2.38;;;7.00;99.90;;;;;;5072874;28;20565;-82
2022/09/22 02:14:46;;;;;;;5.53;2.30;;;7.00;99.90;;;;;;5034001;28;20066;-82
2022/09/22 02:17:14;;;;;;;6.55;2.65;;;7.00;99.90;;;;;;5034018;28;20041;-82
2022/09/22 02:19:41;;;;;;;9.15;3.08;;;7.00;99.90;;;;;;5067201;28;20880;-83
2022/09/22 02:22:10;;;;;;;6.20;2.80;;;6.90;99.90;;;;;;5083404;28;20034;-83
2022/09/22 02:24:43;;;;;;;11.10;2.80;;;6.90;99.90;;;;;;5050523;28;20041;-83
2022/09/22 02:27:25;;;;;;;5.30;2.65;;;6.90;99.90;;;;;;5050284;28;20052;-83
2022/09/22 02:30:00;;;;;;;10.75;3.20;;;6.90;99.90;;;;;;5050285;28;20045;-83
2022/09/22 02:32:29;;;;;;;6.05;3.22;;;6.90;99.90;;;;;;5050001;28;20043;-83
2022/09/22 02:34:56;;;;;;;8.60;3.70;;;6.80;99.90;;;;;;5066329;28;20100;-83
2022/09/22 02:37:57;;;;;;;11.77;4.32;;;6.80;99.90;;;;;;5050215;28;20486;-83
2022/09/22 02:40:34;;;;;;;8.35;3.88;;;6.80;99.90;;;;;;5066389;28;20412;-83
2022/09/22 02:43:05;;;;;;;13.10;4.00;;;6.80;99.90;;;;;;5066021;28;20041;-83
2022/09/22 02:46:14;;;;;;;9.23;3.55;;;6.80;99.90;;;;;;5066311;28;20175;-83
2022/09/22 02:48:48;;;;;;;8.40;3.50;;;6.80;99.90;;;;;;5006574;28;20039;-83
2022/09/22 02:51:17;;;;;;;7.07;3.67;;;6.70;99.90;;;;;;4973995;28;20466;-83
2022/09/22 02:53:44;;;;;;;6.28;3.70;;;6.90;99.90;;;;;;5016082;28;20041;-83
2022/09/22 02:56:11;;;;;;;6.93;2.97;;;6.70;99.90;;;;;;5049282;28;20071;-83
2022/09/22 02:58:37;;;;;;;7.35;3.10;;;6.70;99.90;;;;;;5033504;28;20048;-83
2022/09/22 03:01:04;;;;;;;7.30;3.67;;;6.70;99.90;;;;;;5033013;28;20034;-83
2022/09/22 03:03:31;;;;;;;5.43;3.28;;;6.60;99.90;;;;;;5049804;28;20481;-82
2022/09/22 03:05:58;;;;;;;5.88;3.25;;;6.60;99.90;;;;;;5066107;28;20041;-83
2022/09/22 03:08:25;;;;;;;5.78;3.25;;;6.60;99.90;;;;;;5049692;28;20555;-83
2022/09/22 03:10:51;;;;;;;5.28;2.90;;;6.60;99.90;;;;;;5033272;28;20048;-83
2022/09/22 03:13:18;;;;;;;6.90;3.47;;;6.80;99.90;;;;;;5049167;28;20042;-83
2022/09/22 03:15:45;;;;;;;6.90;2.90;;;6.60;99.90;;;;;;5033270;28;20061;-83
2022/09/22 03:18:12;;;;;;;6.22;3.22;;;7.50;99.90;;;;;;5049408;28;20041;-83
2022/09/22 03:20:40;;;;;;;6.18;3.13;;;6.50;99.90;;;;;;5065952;28;20045;-83
2022/09/22 03:23:06;;;;;;;5.60;3.30;;;7.10;99.90;;;;;;5081928;28;20095;-83
2022/09/22 03:25:33;;;;;;;6.90;3.33;;;6.60;99.90;;;;;;5049465;28;20079;-83
2022/09/22 03:28:00;;;;;;;5.65;3.15;;;6.60;99.90;;;;;;5049450;28;20060;-83
2022/09/22 03:30:27;;;;;;;7.78;3.33;;;6.50;99.90;;;;;;5049031;28;20041;-83
2022/09/22 03:32:53;;;;;;;7.10;3.40;;;6.50;99.90;;;;;;5049211;28;20049;-83
2022/09/22 03:35:20;;;;;;;5.40;3.15;;;6.50;99.90;;;;;;5048983;28;20091;-83
2022/09/22 03:37:47;;;;;;;5.85;3.30;;;6.60;99.90;;;;;;5032839;28;20492;-83
2022/09/22 03:40:14;;;;;;;10.77;3.40;;;6.70;99.90;;;;;;5048976;28;20481;-83
2022/09/22 03:42:40;;;;;;;6.47;3.50;;;6.50;99.90;;;;;;5033223;28;20490;-83
2022/09/22 03:45:08;;;;;;;9.73;3.50;;;6.40;99.90;;;;;;5048975;28;20041;-83
2022/09/22 03:47:35;;;;;;;6.13;3.45;;;6.40;99.90;;;;;;5032999;28;20099;-83
2022/09/22 03:50:01;;;;;;;8.65;3.80;;;6.40;99.90;;;;;;5032904;28;20046;-83
2022/09/22 03:52:28;;;;;;;5.82;3.22;;;6.40;99.90;;;;;;5065313;28;20052;-83
2022/09/22 03:54:55;;;;;;;10.40;3.70;;;6.60;99.90;;;;;;5050465;28;20034;-83
2022/09/22 03:57:21;;;;;;;6.40;3.53;;;6.40;99.90;;;;;;5036902;28;20041;-83
2022/09/22 03:59:48;;;;;;;7.38;3.50;;;6.40;99.90;;;;;;5069875;28;20128;-83
2022/09/22 04:02:15;;;;;;;6.18;3.33;;;6.40;99.90;;;;;;5036676;28;20064;-83
2022/09/22 04:04:42;;;;;;;9.30;5.43;;;6.40;99.90;;;;;;5036762;28;20046;-83
2022/09/22 04:07:09;;;;;;;4.97;3.10;;;6.30;99.90;;;;;;5036033;28;20516;-83
2022/09/22 04:09:35;;;;;;;8.82;3.70;;;6.30;99.90;;;;;;5036649;28;20046;-83
2022/09/22 04:12:02;;;;;;;12.05;3.67;;;6.30;99.90;;;;;;5052718;28;20098;-83
2022/09/22 04:14:29;;;;;;;7.50;3.35;;;6.30;99.90;;;;;;5035921;28;20052;-83
2022/09/22 04:16:56;;;;;;;7.72;3.55;;;7.30;99.90;;;;;;5052668;28;20034;-82
2022/09/22 04:19:22;;;;;;;7.55;3.60;;;6.60;99.90;;;;;;5036345;28;20142;-83
2022/09/22 04:21:49;;;;;;;7.20;3.47;;;6.30;99.90;;;;;;5052981;28;20382;-83
2022/09/22 04:24:16;;;;;;;6.00;3.22;;;6.50;99.90;;;;;;5068951;28;20037;-83
2022/09/22 04:26:42;;;;;;;7.20;3.97;;;6.20;99.90;;;;;;5035149;28;20037;-83
2022/09/22 04:29:09;;;;;;;7.28;3.92;;;6.20;99.90;;;;;;5035577;28;20120;-83
2022/09/22 04:31:36;;;;;;;6.72;3.97;;;6.20;99.90;;;;;;5035876;28;20042;-83
2022/09/22 04:34:02;;;;;;;6.25;3.80;;;6.70;99.90;;;;;;5052232;28;20038;-83
2022/09/22 04:36:29;;;;;;;6.95;3.72;;;6.20;99.90;;;;;;5052277;28;20056;-83
2022/09/22 04:38:56;;;;;;;8.57;4.07;;;6.10;99.90;;;;;;5035943;28;20080;-83
2022/09/22 04:41:22;;;;;;;7.47;3.75;;;6.10;99.90;;;;;;5037383;28;20041;-83
2022/09/22 04:43:49;;;;;;;6.25;3.75;;;6.10;99.90;;;;;;5032264;28;20494;-83
2022/09/22 04:46:16;;;;;;;8.00;3.88;;;6.10;99.90;;;;;;5031992;28;20124;-83
2022/09/22 04:48:42;;;;;;;6.95;3.78;;;6.10;99.90;;;;;;5032185;28;20092;-83
2022/09/22 04:51:09;;;;;;;7.53;4.05;;;6.10;99.90;;;;;;5032106;28;20132;-83
2022/09/22 04:53:36;;;;;;;7.97;3.95;;;6.10;99.90;;;;;;5031990;28;20078;-83
2022/09/22 04:56:03;;;;;;;10.07;4.18;;;6.50;99.90;;;;;;5032310;28;20124;-83
2022/09/22 04:58:30;;;;;;;8.18;3.88;;;6.00;99.90;;;;;;5031845;28;20052;-83
2022/09/22 05:01:05;;;;;;;8.40;4.30;;;6.00;99.90;;;;;;5016181;28;20129;-83
2022/09/22 05:03:32;;;;;;;8.90;4.70;;;6.00;99.90;;;;;;5031526;28;20433;-83
2022/09/22 05:05:58;;;;;;;7.03;3.92;;;6.00;99.90;;;;;;5030387;28;20042;-83
2022/09/22 05:08:25;;;;;;;7.47;4.13;;;6.10;99.90;;;;;;5031479;28;20061;-83
2022/09/22 05:10:52;;;;;;;8.00;4.40;;;6.00;99.90;;;;;;5031789;28;20065;-83
2022/09/22 05:13:19;;;;;;;7.45;4.20;;;6.00;99.90;;;;;;5031409;28;20124;-83
2022/09/22 05:15:46;;;;;;;7.30;3.92;;;6.00;99.90;;;;;;5015443;28;20210;-83
2022/09/22 05:18:13;;;;;;;10.80;4.60;;;6.10;99.90;;;;;;5022717;28;20375;-83
2022/09/22 05:20:41;;;;;;;7.93;4.32;;;6.00;99.90;;;;;;5025762;28;20409;-83
2022/09/22 05:23:08;;;;;;;8.05;4.35;;;6.00;99.90;;;;;;5050013;28;20041;-83
2022/09/22 05:25:35;;;;;;;10.00;4.85;;;6.00;99.90;;;;;;5021066;28;20042;-83
2022/09/22 05:28:01;;;;;;;6.00;3.92;;;5.90;99.90;;;;;;5030884;28;20045;-83
2022/09/22 05:30:28;;;;;;;6.97;4.30;;;6.30;99.90;;;;;;5021685;28;20114;-83
2022/09/22 05:32:55;;;;;;;11.23;4.15;;;6.00;99.90;;;;;;5025785;28;20041;-83
2022/09/22 05:35:23;;;;;;;10.07;4.28;;;6.10;99.90;;;;;;5024001;28;20037;-83
2022/09/22 05:37:51;;;;;;;10.07;4.43;;;6.00;99.90;;;;;;5039462;28;20127;-83
2022/09/22 05:40:19;;;;;;;8.07;4.90;;;6.90;99.90;;;;;;5023919;28;20034;-83
2022/09/22 05:42:48;;;;;;;13.57;5.30;;;6.00;99.90;;;;;;5046373;28;20044;-83
2022/09/22 05:45:16;;;;;;;11.60;5.10;;;6.00;99.90;;;;;;5055819;28;20048;-83
2022/09/22 05:47:44;;;;;;;8.77;5.07;;;6.10;99.90;;;;;;5083848;28;20052;-83
2022/09/22 05:50:13;;;;;;;9.00;5.03;;;6.00;99.90;;;;;;5050662;28;20493;-83
2022/09/22 05:52:39;;;;;;;9.75;5.30;;;6.00;99.90;;;;;;5050420;28;20516;-83
2022/09/22 05:55:07;;;;;;;9.77;5.25;;;6.10;99.90;;;;;;5034710;28;20038;-83
2022/09/22 05:57:33;;;;;;;10.20;5.50;;;6.10;99.90;;;;;;5033882;28;20048;-83
2022/09/22 06:00:00;;;;;;;10.45;4.95;;;6.10;99.90;;;;;;5050483;28;20485;-83
2022/09/22 06:02:27;;;;;;;11.40;5.80;;;6.20;99.90;;;;;;5034427;28;20041;-84
2022/09/22 06:04:54;;;;;;;9.73;5.60;;;6.20;99.90;;;;;;5034566;28;20041;-83
2022/09/22 06:07:22;;;;;;;8.55;5.13;;;6.20;99.90;;;;;;5050813;28;20052;-83
2022/09/22 06:09:49;;;;;;;16.45;5.18;;;6.20;99.90;;;;;;5074294;28;20045;-83
2022/09/22 06:12:17;;;;;;;9.38;5.18;;;7.40;99.90;;;;;;5050424;28;20049;-83
2022/09/22 06:14:44;;;;;;;11.23;5.97;;;6.40;99.90;;;;;;5049823;28;20421;-83
2022/09/22 06:17:11;;;;;;;9.75;5.45;;;6.40;99.90;;;;;;5049979;28;20048;-83
2022/09/22 06:19:38;;;;;;;7.90;4.82;;;6.80;99.90;;;;;;5033260;28;20037;-83
2022/09/22 06:22:07;;;;;;;10.18;5.80;;;6.50;99.90;;;;;;5040486;28;20041;-83
2022/09/22 06:24:34;;;;;;;8.18;5.30;;;6.50;99.90;;;;;;5028268;28;20549;-83
2022/09/22 06:27:00;;;;;;;9.95;5.18;;;6.60;99.90;;;;;;5033619;28;20128;-83
2022/09/22 06:29:27;;;;;;;9.38;5.70;;;6.60;99.90;;;;;;5049288;28;20037;-87
2022/09/22 06:31:54;;;;;;;9.05;5.68;;;6.70;99.90;;;;;;5031413;28;20103;-87
2022/09/22 06:34:22;;;;;;;10.93;5.78;;;6.70;99.90;;;;;;5048059;28;20037;-87
2022/09/22 06:36:49;;;;;;;9.60;5.93;;;6.80;99.90;;;;;;5022492;28;20250;-87
2022/09/22 06:39:16;;;;;;;10.68;6.15;;;6.90;99.90;;;;;;5010972;28;20120;-87
2022/09/22 06:41:43;;;;;;;14.38;6.80;;;7.30;99.90;;;;;;5026861;28;20105;-86
2022/09/22 06:44:14;;;;;;;12.13;7.10;;;7.00;99.90;;;;;;5050171;28;20120;-87
2022/09/22 06:46:40;;;;;;;10.50;6.05;;;7.10;99.90;;;;;;5047445;28;20041;-87
2022/09/22 06:49:07;;;;;;;12.32;7.25;;;7.10;99.90;;;;;;5033623;28;20563;-86
2022/09/22 06:51:35;;;;;;;10.73;6.43;;;7.20;99.90;;;;;;5031380;28;20698;-86
2022/09/22 06:54:04;;;;;;;11.85;7.15;;;7.30;99.90;;;;;;5050882;28;20503;-86
2022/09/22 06:56:41;;;;;;;13.10;7.00;;;7.40;99.90;;;;;;5083276;28;20036;-86
2022/09/22 06:59:15;;;;;;;11.13;6.50;;;7.40;99.90;;;;;;5053195;28;20117;-86
2022/09/22 07:01:43;;;;;;;12.20;6.90;;;7.50;99.90;;;;;;5029597;28;20041;-86
2022/09/22 07:04:11;;;;;;;15.23;7.30;;;7.60;99.90;;;;;;5054492;28;20049;-86
2022/09/22 07:06:38;;;;;;;11.02;6.50;;;7.70;99.90;;;;;;5022444;28;20045;-84
2022/09/22 07:09:07;;;;;;;10.30;6.15;;;7.70;99.90;;;;;;5033618;28;20459;-84
2022/09/22 07:11:34;;;;;;;15.30;7.47;;;7.90;99.90;;;;;;5065761;28;20041;-84
2022/09/22 07:14:02;;;;;;;14.27;6.90;;;8.20;99.90;;;;;;5038558;28;20044;-83
2022/09/22 07:16:28;;;;;;;14.30;7.45;;;8.00;99.90;;;;;;5017116;28;20052;-84
2022/09/22 07:18:57;;;;;;;17.08;7.18;;;8.00;99.90;;;;;;5023529;28;20029;-84
2022/09/22 07:21:28;;;;;;;13.43;7.55;;;8.10;99.90;;;;;;5046705;28;20048;-84
2022/09/22 07:23:56;;;;;;;11.52;6.85;;;8.10;99.90;;;;;;5072403;28;20037;-84
2022/09/22 07:26:29;;;;;;;11.23;6.55;;;8.20;99.90;;;;;;5033990;28;20122;-84
2022/09/22 07:28:58;;;;;;;13.23;6.45;;;8.30;99.90;;;;;;5048563;28;20379;-83
2022/09/22 07:31:27;;;;;;;11.35;6.78;;;8.40;99.90;;;;;;5032973;28;20037;-84
2022/09/22 07:33:55;;;;;;;13.95;6.90;;;8.50;99.90;;;;;;5045010;28;20629;-84
2022/09/22 07:36:27;;;;;;;12.13;6.20;;;8.60;99.90;;;;;;5062639;28;20092;-84
2022/09/22 07:38:56;;;;;;;11.25;6.32;;;8.70;99.90;;;;;;5061692;28;20046;-82
2022/09/22 07:41:28;;;;;;;10.95;5.10;;;8.80;99.90;;;;;;5065308;28;20033;-83
2022/09/22 07:45:11;;;;;;;12.52;6.05;;;8.90;99.90;;;;;;5048915;28;20045;-84
2022/09/22 07:46:46;;;;;;;9.68;5.95;;;9.10;99.90;;;;;;5050568;28;20042;-84
2022/09/22 07:49:18;;;;;;;12.85;5.50;;;9.20;99.90;;;;;;5047690;28;20061;-84
2022/09/22 07:51:45;;;;;;;8.88;5.57;;;9.30;99.90;;;;;;5032874;28;20037;-85
2022/09/22 07:54:12;;;;;;;10.93;5.28;;;9.40;99.90;;;;;;5047668;28;20091;-87
2022/09/22 07:56:41;;;;;;;11.35;5.07;;;9.60;99.90;;;;;;5020084;28;20512;-85
2022/09/22 07:59:10;;;;;;;10.23;5.43;;;9.70;99.90;;;;;;5028633;28;20560;-84
2022/09/22 08:01:42;;;;;;;10.73;4.80;;;9.80;99.90;;;;;;5030613;28;20053;-84
2022/09/22 08:04:14;;;;;;;7.63;4.78;;;9.90;99.90;;;;;;5048126;28;20037;-85
2022/09/22 08:06:42;;;;;;;13.18;5.88;;;10.00;99.90;;;;;;5031223;28;20494;-84
2022/09/22 08:09:09;;;;;;;10.38;4.60;;;10.20;99.90;;;;;;5032263;28;20046;-84
2022/09/22 08:11:37;;;;;;;10.85;5.38;;;10.20;99.90;;;;;;5029486;28;20131;-84
2022/09/22 08:14:06;;;;;;;7.95;4.60;;;10.30;99.90;;;;;;5032108;28;20085;-84
2022/09/22 08:16:35;;;;;;;7.63;4.65;;;10.50;99.90;;;;;;5030880;28;20037;-84
2022/09/22 08:19:09;;;;;;;8.10;4.70;;;10.60;99.90;;;;;;5028814;28;20061;-84
2022/09/22 08:21:37;;;;;;;9.32;4.65;;;10.60;99.90;;;;;;5031177;28;20050;-84
2022/09/22 08:24:05;;;;;;;9.10;4.82;;;10.80;99.90;;;;;;5028547;28;20038;-84
2022/09/22 08:26:35;;;;;;;9.07;4.78;;;10.90;99.90;;;;;;5028301;28;20092;-83
2022/09/22 08:29:03;;;;;;;8.45;4.85;;;11.00;99.90;;;;;;5028631;28;20042;-84
2022/09/22 08:31:31;;;;;;;8.45;4.05;;;11.10;99.90;;;;;;5012512;28;20045;-84
2022/09/22 08:34:00;;;;;;;13.00;4.38;;;11.20;99.90;;;;;;5028302;28;20505;-84
2022/09/22 08:36:27;;;;;;;7.68;4.28;;;11.30;99.90;;;;;;5053109;28;20044;-83
2022/09/22 08:38:54;;;;;;;11.40;4.80;;;11.50;99.90;;;;;;5027086;28;20041;-85
2022/09/22 08:41:27;;;;;;;9.93;4.38;;;11.60;99.90;;;;;;5047316;28;20041;-87
2022/09/22 08:43:56;;;;;;;13.10;4.28;;;11.70;99.90;;;;;;5051068;28;20469;-84
2022/09/22 08:46:34;;;;;;;6.78;4.38;;;11.90;99.90;;;;;;5050625;28;20048;-85
2022/09/22 08:52:39;;;;;;;8.43;3.78;;;12.10;99.90;;;;;;5077853;28;20049;-90
2022/09/22 08:55:24;;;;;;;7.50;3.80;;;12.20;99.90;;;;;;5042768;28;20041;-91
2022/09/22 08:58:00;;;;;;;9.75;3.63;;;12.30;99.90;;;;;;5050835;28;20033;-83
2022/09/22 09:00:34;;;;;;;9.48;3.55;;;12.40;99.90;;;;;;5064417;28;20069;-84
2022/09/22 09:03:30;;;;;;;6.50;3.80;;;12.60;99.90;;;;;;5051142;28;20132;-85
2022/09/22 09:06:08;;;;;;;8.93;3.03;;;12.70;99.90;;;;;;5051154;28;20084;-85
2022/09/22 09:08:40;;;;;;;7.20;3.15;;;12.80;99.90;;;;;;5067378;28;20057;-85
2022/09/22 09:11:25;;;;;;;5.43;3.00;;;12.90;99.90;;;;;;5067817;28;20037;-85
2022/09/22 09:14:16;;;;;;;7.68;2.83;;;13.10;99.90;;;;;;5067189;28;20041;-85
2022/09/22 09:16:54;;;;;;;5.20;2.60;;;13.20;99.90;;;;;;5050444;28;20053;-84
2022/09/22 09:19:34;;;;;;;6.43;3.08;;;13.30;99.90;;;;;;5051213;28;20513;-84
2022/09/22 09:22:13;;;;;;;5.50;2.97;;;13.50;99.90;;;;;;5050907;28;20041;-84
2022/09/22 09:24:47;;;;;;;6.40;3.00;;;13.60;99.90;;;;;;5050962;28;20054;-84
2022/09/22 09:27:22;;;;;;;5.88;2.70;;;13.70;99.90;;;;;;5031743;28;20045;-85
2022/09/22 09:30:02;;;;;;;4.72;2.88;;;13.90;99.90;;;;;;5047092;28;20409;-84
2022/09/22 09:32:33;;;;;;;9.40;2.55;;;14.00;99.90;;;;;;5047565;28;20446;-84
2022/09/22 09:35:01;;;;;;;4.75;2.00;;;14.20;99.90;;;;;;5031138;28;20057;-85
2022/09/22 09:37:29;;;;;;;5.88;2.42;;;14.30;99.90;;;;;;5045008;28;20057;-84
2022/09/22 09:40:00;;;;;;;6.80;2.30;;;14.40;99.90;;;;;;5030747;28;20509;-84
2022/09/22 09:42:32;;;;;;;5.03;2.50;;;14.40;99.90;;;;;;5031024;28;20048;-84
2022/09/22 09:45:01;;;;;;;6.07;2.28;;;14.50;99.90;;;;;;5030596;28;20533;-85
2022/09/22 09:47:43;;;;;;;4.35;2.03;;;14.50;99.90;;;;;;5018703;28;20037;-85
2022/09/22 09:50:10;;;;;;;6.95;2.30;;;14.60;99.90;;;;;;5050783;28;20489;-84
2022/09/22 09:52:38;;;;;;;5.35;2.40;;;14.70;99.90;;;;;;5066316;28;20493;-84
2022/09/22 09:55:32;;;;;;;5.50;2.40;;;14.80;99.90;;;;;;5049888;28;20041;-85
2022/09/22 09:58:10;;;;;;;5.60;2.13;;;14.90;99.90;;;;;;5043918;28;20493;-85
2022/09/22 10:00:56;;;;;;;3.75;1.80;;;15.00;99.90;;;;;;5052888;28;20397;-83
2022/09/22 10:03:28;;;;;;;4.07;1.75;;;15.10;99.90;;;;;;5083090;28;20202;-84
2022/09/22 10:06:23;;;;;;;5.05;2.00;;;15.20;99.90;;;;;;5050277;28;20080;-84
2022/09/22 10:08:50;;;;;;;5.72;2.13;;;15.30;99.90;;;;;;5025113;28;20132;-87
2022/09/22 10:11:28;;;;;;;7.43;1.88;;;15.30;99.90;;;;;;5033028;28;20038;-86
2022/09/22 10:13:56;;;;;;;5.45;1.73;;;15.40;99.90;;;;;;5030286;28;20038;-85
2022/09/22 10:16:25;;;;;;;4.75;2.08;;;15.50;99.90;;;;;;5048815;28;20053;-85
2022/09/22 10:19:27;;;;;;;6.25;2.35;;;15.60;99.90;;;;;;5073292;28;20144;-83
2022/09/22 10:22:25;;;;;;;5.28;2.00;;;15.60;99.90;;;;;;5044496;28;20061;-86
2022/09/22 10:25:00;;;;;;;4.13;1.83;;;15.60;99.90;;;;;;5050001;28;20044;-84
2022/09/22 10:27:29;;;;;;;5.75;1.98;;;15.70;99.90;;;;;;5053214;28;20815;-83
2022/09/22 10:30:20;;;;;;;2.42;1.38;;;15.70;99.90;;;;;;5051257;28;20624;-83
2022/09/22 10:33:12;;;;;;;3.08;1.60;;;15.90;99.90;;;;;;5030684;28;20076;-83
2022/09/22 10:35:43;;;;;;;4.03;1.50;;;15.90;99.90;;;;;;5053601;28;20045;-83
2022/09/22 10:38:13;;;;;;;4.57;1.65;;;16.60;99.90;;;;;;5042609;28;20049;-85
2022/09/22 10:40:45;;;;;;;4.97;1.70;;;16.10;99.90;;;;;;5049910;28;20037;-83
2022/09/22 10:43:34;;;;;;;3.17;1.83;;;16.10;99.90;;;;;;5063622;28;20044;-86
2022/09/22 10:46:13;;;;;;;2.75;1.60;;;16.20;99.90;;;;;;5044942;28;20402;-85
2022/09/22 10:48:54;;;;;;;3.63;1.55;;;16.50;99.90;;;;;;5050621;28;20103;-86
2022/09/22 10:51:29;;;;;;;3.58;1.52;;;16.40;99.90;;;;;;5047808;28;20426;-86
2022/09/22 10:54:24;;;;;;;4.88;1.58;;;16.40;99.90;;;;;;5040757;28;20490;-85
2022/09/22 10:56:54;;;;;;;6.68;1.60;;;16.50;99.90;;;;;;5048710;28;20061;-83
2022/09/22 10:59:33;;;;;;;3.95;1.55;;;16.50;99.90;;;;;;5066041;28;20033;-85
2022/09/22 11:02:29;;;;;;;4.47;2.08;;;16.50;99.90;;;;;;5049061;28;20041;-86
2022/09/22 11:05:02;;;;;;;;;;;16.50;99.90;;;;;;5062354;28;20037;-86
2022/09/22 11:14:20;;;;;;;5.63;1.80;;;16.50;99.90;;;;;;5078221;28;20537;-85
2022/09/22 11:17:14;;;;;;;3.45;1.38;;;16.60;99.90;;;;;;5048840;28;20057;-85
2022/09/22 11:20:11;;;;;;;6.88;2.40;;;16.70;99.90;;;;;;5049574;28;20045;-85
2022/09/22 11:22:52;;;;;;;3.55;1.73;;;16.80;99.90;;;;;;5048583;28;20052;-84
2022/09/22 11:25:41;;;;;;;5.82;2.28;;;16.90;99.90;;;;;;5052882;28;20045;-85
2022/09/22 11:28:29;;;;;;;7.95;2.30;;;16.90;99.90;;;;;;5048663;28;20041;-84
2022/09/22 11:30:57;;;;;;;3.30;1.80;;;16.80;99.90;;;;;;5045299;28;20043;-84
2022/09/22 11:33:52;;;;;;;7.32;2.42;;;16.60;99.90;;;;;;5028567;28;20947;-84
2022/09/22 11:36:28;;;;;;;4.88;2.40;;;16.60;99.90;;;;;;5036991;28;20473;-84
2022/09/22 11:39:08;;;;;;;5.30;2.22;;;16.50;99.90;;;;;;5040637;28;20575;-84
2022/09/22 11:41:47;;;;;;;4.00;2.10;;;16.50;99.90;;;;;;5043660;28;20406;-84
2022/09/22 11:44:35;;;;;;;5.32;2.20;;;16.60;99.90;;;;;;5048250;28;20034;-84
2022/09/22 11:47:09;;;;;;;4.25;2.28;;;16.80;99.90;;;;;;5065656;28;20075;-84
2022/09/22 11:50:33;;;;;;;6.30;2.60;;;16.80;99.90;;;;;;5064976;28;20497;-84
2022/09/22 11:53:30;;;;;;;4.57;2.08;;;16.70;99.90;;;;;;5017060;28;20050;-84
2022/09/22 11:56:20;;;;;;;4.38;2.30;;;16.50;99.90;;;;;;5009471;28;20050;-84
2022/09/22 11:58:48;;;;;;;5.63;2.15;;;16.60;99.90;;;;;;5038692;28;20152;-84
2022/09/22 12:01:23;;;;;;;4.68;2.22;;;16.80;99.90;;;;;;5020252;28;20034;-84
2022/09/22 12:04:11;;;;;;;8.70;2.42;;;16.80;99.90;;;;;;5058823;28;20045;-84
2022/09/22 12:06:43;;;;;;;4.68;2.40;;;16.70;99.90;;;;;;5039901;28;20033;-83
2022/09/22 12:09:30;;;;;;;7.57;2.28;;;16.60;99.90;;;;;;5047987;28;20139;-84
2022/09/22 12:12:00;;;;;;;7.65;2.30;;;16.40;99.90;;;;;;5041126;28;20049;-83
2022/09/22 12:14:27;;;;;;;5.43;2.42;;;16.50;99.90;;;;;;5063637;28;20057;-83
2022/09/22 12:17:21;;;;;;;4.93;2.33;;;16.70;99.90;;;;;;5034251;28;20041;-84
2022/09/22 12:19:54;;;;;;;3.45;1.70;;;16.90;99.90;;;;;;5038074;28;20485;-84
2022/09/22 12:22:35;;;;;;;3.90;2.03;;;17.10;99.90;;;;;;5051828;28;20041;-84
2022/09/22 12:25:02;;;;;;;6.45;1.95;;;17.20;99.90;;;;;;5062966;28;20133;-84
2022/09/22 12:27:29;;;;;;;8.07;2.08;;;17.20;99.90;;;;;;5030974;28;20049;-84
2022/09/22 12:30:00;;;;;;;6.13;2.38;;;17.30;99.90;;;;;;5048881;28;20052;-84
2022/09/22 12:32:40;;;;;;;4.55;2.20;;;17.20;99.90;;;;;;5085046;28;20105;-83
2022/09/22 12:35:18;;;;;;;4.82;2.10;;;17.10;99.90;;;;;;5050312;28;20073;-83
2022/09/22 12:37:44;;;;;;;4.63;1.90;;;17.00;99.90;;;;;;5051467;28;20036;-84
2022/09/22 12:40:40;;;;;;;6.05;2.00;;;17.00;99.90;;;;;;5026200;28;20502;-84
2022/09/22 12:43:14;;;;;;;3.40;2.10;;;16.90;99.90;;;;;;5030121;28;20080;-84
2022/09/22 12:45:42;;;;;;;6.28;2.28;;;16.80;99.90;;;;;;5051571;28;20679;-84
2022/09/22 12:48:21;;;;;;;5.18;1.75;;;16.70;99.90;;;;;;5051578;28;20034;-83
2022/09/22 12:50:48;;;;;;;5.32;1.95;;;16.60;99.90;;;;;;5084882;28;20041;-84
2022/09/22 12:53:21;;;;;;;5.25;2.00;;;16.70;99.90;;;;;;5034660;28;20045;-84
2022/09/22 12:55:55;;;;;;;5.30;2.05;;;16.80;99.90;;;;;;5054367;28;20041;-83
2022/09/22 12:58:22;;;;;;;7.25;3.05;;;16.80;99.90;;;;;;5051991;28;20103;-83
2022/09/22 13:00:55;;;;;;;3.63;1.90;;;16.80;99.90;;;;;;5051247;28;20045;-83
2022/09/22 13:03:24;;;;;;;4.03;1.90;;;16.70;99.90;;;;;;5053012;28;20502;-84
2022/09/22 13:06:03;;;;;;;3.17;1.83;;;16.70;99.90;;;;;;5046604;28;20042;-84
2022/09/22 13:08:30;;;;;;;6.63;2.20;;;16.80;99.90;;;;;;5051003;28;20049;-84
2022/09/22 13:11:08;;;;;;;3.92;1.95;;;16.90;99.90;;;;;;5083246;28;20121;-83
2022/09/22 13:13:46;;;;;;;5.53;1.85;;;17.10;99.90;;;;;;5031693;28;20069;-84
2022/09/22 13:16:12;;;;;;;5.22;2.08;;;17.20;99.90;;;;;;5041471;28;20046;-84
2022/09/22 13:18:44;;;;;;;3.70;1.50;;;17.30;99.90;;;;;;5067866;28;20095;-84
2022/09/22 13:21:13;;;;;;;4.55;1.90;;;17.40;99.90;;;;;;5067475;28;20064;-84
2022/09/22 13:23:52;;;;;;;2.83;1.70;;;17.40;99.90;;;;;;5050470;28;20077;-84
2022/09/22 13:26:31;;;;;;;4.45;1.67;;;17.40;99.90;;;;;;5040975;28;20397;-84
2022/09/22 13:29:19;;;;;;;5.43;2.22;;;17.40;99.90;;;;;;5030705;28;20049;-84